KGEZ

Shelbyville Municipal Airport

Shelbyville, Indiana, USA
METAR KGEZ 180753Z AUTO 19006KT 10SM OVC009 05/02 A3007 RMK AO2 SLP186 T00500022
Observed Flight Rules
Dec-18 @ 07:53 UTC (52 minutes ago) Instrument Flight Rules
Wind Visibility Clouds
190° at 6 knots 10 miles
  • Overcast at 900' AGL
Temperatures Readings
Current 5°C / 41°F
Dewpoint 2°C / 36°F
Humidity 81%
Altimeter 30.07" Hg
Pressure 1018.6 hPa
Elevation 245
METAR KGEZ 180753Z AUTO 19006KT 10SM OVC009 05/02 A3007 RMK AO2 SLP186 T00500022
Observed Flight Rules
Dec-18 @ 07:53 UTC
(52 minutes ago)
IFR
Wind Visibility
190° at 6 knots 10 miles
Clouds
  • Overcast at 900' AGL
Temperature Dewpoint
5°C / 41°F 2°C / 36°F
Humidity Altimeter Pressure
81% 30.07" Hg 1018.6 hPa